»·PEaware :: N716TH KVNY-KSNA

N716TH :: KVNY-KSNA

FLIGHT INFORMATION

Flight Status: Arrived
Operator: Privately registered:
United States
More flights under this callsign
Pilot: Danny R. (17997)
Aircraft: CESSNA 172 SKYHAWK
(C172)
More flights by this aircraft type
Origin: KVNY Van Nuys
United States
Destination: KSNA John Wayne-Orange Co
United States
More flights between these airports :: More routes between these airports
Route: +
File this flight plan on PilotEdge
Remarks: CAT10
Altitude:
(Current/Filed)
5,500ft
Speed:
(Current/Filed)
0kts
Departed: 02-Mar-18 01:59 PM
Arrived: 02-Mar-18 03:16 PM
Distance/Time
Traveled:
44nm/1:16
Distance/Time
To Go:
Arrived

Flight Plot

Page will automatically refresh every two minutes.


Map Options




Map Legend


Flown Route
Filed Route
Departure Airport
Arrival Airport
Navaid (VOR, NDB)
Fix

Horizontal Profiles

Position Reports

Time Latitude Longitude Heading Altitude Ground
Speed
02-Mar-18 13:59 34.219952 -118.493123 249 804ft 0kts
02-Mar-18 14:00 34.219952 -118.493123 249 804ft 0kts
02-Mar-18 14:01 34.219952 -118.493123 249 804ft 0kts
02-Mar-18 14:02 34.219952 -118.493123 249 804ft 0kts
02-Mar-18 14:03 34.218958 -118.493200 138 804ft 7kts
02-Mar-18 14:04 34.218699 -118.492133 72 804ft 0kts
02-Mar-18 14:05 34.218752 -118.491894 83 804ft 7kts
02-Mar-18 14:06 34.205636 -118.490064 171 1242ft 75kts
02-Mar-18 14:07 34.186759 -118.499222 239 2042ft 93kts
02-Mar-18 14:08 34.174026 -118.526971 237 2692ft 88kts
02-Mar-18 14:09 34.160659 -118.553849 226 3400ft 97kts
02-Mar-18 14:10 34.138743 -118.554483 155 4229ft 79kts
02-Mar-18 14:11 34.119996 -118.544751 149 5081ft 70kts
02-Mar-18 14:12 34.100041 -118.531119 148 5462ft 94kts
02-Mar-18 14:13 34.077752 -118.516857 155 5491ft 86kts
02-Mar-18 14:14 34.058893 -118.503438 95 5425ft 74kts
02-Mar-18 14:15 34.078621 -118.502655 334 5441ft 99kts
02-Mar-18 14:16 34.218276 -118.493413 85 804ft 0kts
02-Mar-18 14:17 34.218276 -118.493413 85 804ft 0kts
02-Mar-18 14:18 34.218276 -118.493413 85 804ft 0kts
02-Mar-18 14:19 34.218277 -118.493398 84 804ft 0kts
02-Mar-18 14:20 34.218277 -118.493398 84 804ft 0kts
02-Mar-18 14:21 34.218277 -118.493398 84 804ft 0kts
02-Mar-18 14:22 34.218277 -118.493398 84 804ft 0kts
02-Mar-18 14:23 34.218277 -118.493398 84 804ft 0kts
02-Mar-18 14:24 34.218277 -118.493398 84 804ft 0kts
02-Mar-18 14:25 34.218277 -118.493398 84 804ft 0kts
02-Mar-18 14:26 34.218283 -118.493337 81 804ft 3kts
02-Mar-18 14:27 34.218677 -118.492164 73 804ft 5kts
02-Mar-18 14:28 34.218691 -118.492118 67 804ft 0kts
02-Mar-18 14:29 34.218691 -118.492118 67 804ft 0kts
02-Mar-18 14:30 34.211285 -118.490798 173 996ft 69kts
02-Mar-18 14:31 34.192152 -118.495061 255 1800ft 94kts
02-Mar-18 14:32 34.186210 -118.527455 220 2304ft 100kts
02-Mar-18 14:33 34.161380 -118.539865 200 2503ft 98kts
02-Mar-18 14:34 34.136438 -118.544545 181 2718ft 87kts
02-Mar-18 14:35 34.114094 -118.539442 154 2900ft 77kts
02-Mar-18 14:36 34.096354 -118.528173 149 3251ft 72kts
02-Mar-18 14:37 34.077513 -118.516719 150 3696ft 77kts
02-Mar-18 14:38 34.058165 -118.505233 150 4349ft 77kts
02-Mar-18 14:39 34.036312 -118.492499 151 4424ft 87kts
02-Mar-18 14:40 34.016832 -118.476646 101 4440ft 98kts
02-Mar-18 14:41 34.040219 -118.464768 335 4480ft 127kts
02-Mar-18 14:42 34.071741 -118.484727 334 4479ft 128kts
02-Mar-18 14:43 34.103239 -118.504755 334 4490ft 128kts
02-Mar-18 14:44 34.133074 -118.523815 333 4938ft 101kts
02-Mar-18 14:45 34.155426 -118.540557 300 5435ft 101kts
02-Mar-18 14:46 34.138910 -118.549273 161 5423ft 83kts
02-Mar-18 14:47 34.117532 -118.539537 153 5427ft 82kts
02-Mar-18 14:48 34.095905 -118.527366 152 5424ft 90kts
02-Mar-18 14:49 34.073236 -118.512670 152 5425ft 94kts
02-Mar-18 14:50 34.049146 -118.498802 152 5422ft 97kts
02-Mar-18 14:51 34.029183 -118.486247 149 5424ft 97kts
02-Mar-18 14:52 33.999238 -118.469198 152 5433ft 105kts
02-Mar-18 14:53 33.977456 -118.456936 152 5426ft 102kts
02-Mar-18 14:54 33.952115 -118.442664 152 5423ft 100kts
02-Mar-18 14:55 33.924931 -118.422677 128 5432ft 98kts
02-Mar-18 14:56 33.909111 -118.402993 133 5431ft 99kts
02-Mar-18 14:57 33.890718 -118.380801 133 5462ft 97kts
02-Mar-18 14:58 33.868184 -118.353621 133 5463ft 98kts
02-Mar-18 14:59 33.850272 -118.337282 160 5462ft 100kts
02-Mar-18 15:00 33.828726 -118.316802 136 5461ft 99kts
02-Mar-18 15:01 33.808415 -118.294528 136 5460ft 99kts
02-Mar-18 15:02 33.788097 -118.272258 136 5459ft 99kts
02-Mar-18 15:03 33.767716 -118.249938 136 5456ft 99kts
02-Mar-18 15:04 33.747507 -118.227682 135 5452ft 95kts
02-Mar-18 15:05 33.729582 -118.205908 98 5434ft 90kts
02-Mar-18 15:06 33.726638 -118.176221 100 5429ft 88kts
02-Mar-18 15:07 33.724811 -118.146992 91 5424ft 85kts
02-Mar-18 15:08 33.724573 -118.118894 91 5420ft 79kts
02-Mar-18 15:09 33.724424 -118.093784 92 4737ft 73kts
02-Mar-18 15:10 33.724288 -118.069580 92 4057ft 72kts
02-Mar-18 15:11 33.724134 -118.045596 91 3439ft 67kts
02-Mar-18 15:12 33.724030 -118.023746 91 3413ft 67kts
02-Mar-18 15:13 33.723916 -118.001711 91 3407ft 60kts
02-Mar-18 15:14 33.723670 -117.977295 94 2690ft 80kts
02-Mar-18 15:15 33.710736 -117.954899 132 2030ft 83kts
02-Mar-18 15:16 33.691701 -117.939185 151 1478ft 83kts
02-Mar-18 15:17 33.672251 -117.927576 138 953ft 76kts
02-Mar-18 15:18 33.672100 -117.905977 71 953ft 72kts
02-Mar-18 15:19 33.685076 -117.890320 29 997ft 68kts
02-Mar-18 15:20 33.702411 -117.881510 35 968ft 66kts
02-Mar-18 15:21 33.698705 -117.862914 123 564ft 58kts
02-Mar-18 15:22 33.683625 -117.863885 201 140ft 63kts
02-Mar-18 15:23 33.675980 -117.869772 301 60ft 0kts
02-Mar-18 15:24 33.675980 -117.869772 301 60ft 0kts
02-Mar-18 15:25 33.673657 -117.871792 277 60ft 10kts
02-Mar-18 15:26 33.674013 -117.872058 121 60ft 0kts
02-Mar-18 15:27 33.674013 -117.872059 121 60ft 0kts

Navigation Log

Ident Type
1. KVNY Airport
2. KSNA Airport